createdAt,value
2018-09-19T07:26:55.147Z,3.00
2018-09-19T07:27:55.863Z,3.80
2018-09-19T07:28:56.561Z,4.00
2018-09-19T07:29:57.233Z,4.00
2018-09-19T07:30:57.932Z,3.60
2018-09-19T07:31:58.626Z,3.90
2018-09-19T07:32:59.365Z,3.60
2018-09-19T07:34:20.510Z,3.30
2018-09-19T07:35:25.652Z,3.40
2018-09-19T07:36:47.684Z,3.50
2018-09-19T07:37:48.350Z,3.50
2018-09-19T07:38:49.007Z,3.20
2018-09-19T07:39:49.756Z,3.10
2018-09-19T07:40:50.520Z,3.60
2018-09-19T07:41:51.235Z,3.50
2018-09-19T07:42:51.900Z,3.60
2018-09-19T07:43:52.605Z,3.50
2018-09-19T07:44:53.354Z,3.40
2018-09-19T07:47:41.218Z,3.40
2018-09-19T07:48:41.938Z,3.50
2018-09-19T07:50:42.924Z,3.60
2018-09-19T07:51:43.802Z,3.20
2018-09-19T07:52:45.297Z,3.40
2018-09-19T07:53:45.989Z,3.40
2018-09-19T07:55:53.203Z,3.30
2018-09-19T07:56:53.848Z,3.30
2018-09-19T07:57:54.562Z,3.40
2018-09-19T07:58:55.798Z,3.70
2018-09-19T07:59:56.940Z,3.40
2018-09-19T08:00:57.701Z,3.40
2018-09-19T08:02:17.865Z,3.70
2018-09-19T08:03:18.560Z,3.10
2018-09-19T08:04:19.276Z,3.30
2018-09-19T08:05:19.954Z,3.10
2018-09-19T08:06:47.918Z,3.20
2018-09-19T08:08:17.439Z,3.30
2018-09-19T08:09:18.245Z,3.10
2018-09-19T08:10:47.930Z,3.30
2018-09-19T08:11:48.634Z,3.30
2018-09-19T08:12:49.333Z,3.40
2018-09-19T08:14:18.556Z,3.30
2018-09-19T08:15:19.276Z,3.20
2018-09-19T08:16:20.668Z,3.50
2018-09-19T08:17:47.295Z,3.30
2018-09-19T08:18:48.030Z,3.70
2018-09-19T08:21:56.950Z,3.50
2018-09-19T08:22:57.658Z,3.40
2018-09-19T08:24:00.428Z,3.30
2018-09-19T08:26:28.491Z,3.30
2018-09-19T08:27:29.153Z,3.50
2018-09-19T08:28:29.832Z,3.10
2018-09-19T08:29:30.520Z,3.30
2018-09-19T08:30:31.181Z,3.60
2018-09-19T08:31:31.892Z,3.30
2018-09-19T08:32:32.567Z,3.30
2018-09-19T08:33:33.241Z,3.30
2018-09-19T08:34:33.959Z,3.30
2018-09-19T08:35:34.645Z,3.10
2018-09-19T08:36:47.973Z,3.30
2018-09-19T08:37:48.698Z,3.20
2018-09-19T08:38:49.423Z,3.20
2018-09-19T08:41:37.474Z,3.30
2018-09-19T08:42:38.155Z,3.20
2018-09-19T08:43:38.840Z,3.00
2018-09-19T08:45:17.241Z,3.10
2018-09-19T08:46:17.906Z,3.30
2018-09-19T08:48:18.863Z,3.50
2018-09-19T08:49:19.551Z,2.90
2018-09-19T08:50:20.201Z,3.20
2018-09-19T08:51:20.872Z,2.90
2018-09-19T08:52:21.585Z,2.80
2018-09-19T08:53:26.094Z,3.00
2018-09-19T08:54:26.821Z,3.00
2018-09-19T08:55:28.004Z,2.90
2018-09-19T08:56:28.676Z,3.10
2018-09-19T08:57:29.338Z,3.00
2018-09-19T08:58:29.978Z,3.60
2018-09-19T08:59:30.649Z,3.10
2018-09-19T09:01:59.325Z,3.10
2018-09-19T09:05:17.659Z,3.60
2018-09-19T09:06:07.723Z,3.20
2018-09-19T09:07:09.735Z,3.40
2018-09-19T09:08:11.515Z,3.10
2018-09-19T09:09:13.026Z,2.90
2018-09-19T09:10:14.189Z,2.80
2018-09-19T09:13:32.404Z,3.30
2018-09-19T09:16:21.143Z,3.10
2018-09-19T09:17:57.650Z,3.30
2018-09-19T09:18:58.332Z,3.30
2018-09-19T09:20:00.281Z,3.20
2018-09-19T09:21:00.898Z,3.20
2018-09-19T09:22:02.193Z,3.10
2018-09-19T09:23:02.879Z,2.90
2018-09-19T09:24:03.607Z,3.50
2018-09-19T09:25:11.506Z,2.80
2018-09-19T09:26:19.393Z,2.90
2018-09-19T09:27:20.413Z,2.90
2018-09-19T09:28:21.782Z,2.90
2018-09-19T09:29:52.407Z,2.90
2018-09-19T09:30:53.190Z,2.90
2018-09-19T09:31:54.023Z,3.10
2018-09-19T09:32:55.016Z,2.90
2018-09-19T09:33:55.868Z,2.90
2018-09-19T09:34:56.695Z,2.90
2018-09-19T09:35:57.524Z,2.70
2018-09-19T09:36:58.443Z,2.80
2018-09-19T09:38:04.906Z,2.90
2018-09-19T09:39:05.892Z,2.90
2018-09-19T09:40:17.863Z,2.80
2018-09-19T09:41:18.651Z,2.70
2018-09-19T09:42:19.479Z,3.00
2018-09-19T09:43:47.996Z,2.80
2018-09-19T09:45:49.127Z,2.90
2018-09-19T09:47:18.294Z,3.00
2018-09-19T09:50:09.224Z,2.90
2018-09-19T09:51:12.119Z,2.90
2018-09-19T09:52:13.206Z,2.90
2018-09-19T09:53:14.262Z,3.00
2018-09-19T09:54:18.314Z,3.10
2018-09-19T09:55:19.200Z,3.10
2018-09-19T09:56:56.486Z,3.10
2018-09-19T09:57:57.148Z,2.80
2018-09-19T09:59:18.536Z,2.90
2018-09-19T10:00:19.208Z,2.90
2018-09-19T10:01:19.887Z,2.80
2018-09-19T10:02:20.587Z,2.60
2018-09-19T10:04:21.494Z,2.80
2018-09-19T10:05:22.128Z,2.80
2018-09-19T10:06:22.835Z,2.70
2018-09-19T10:07:53.233Z,2.70
2018-09-19T10:08:53.995Z,2.70
2018-09-19T10:13:30.548Z,2.50
2018-09-19T10:14:31.251Z,2.60
2018-09-19T10:15:32.055Z,2.60
2018-09-19T10:16:32.717Z,2.80
2018-09-19T10:19:36.920Z,2.60
2018-09-19T10:20:38.099Z,2.60
2018-09-19T10:21:47.452Z,2.80
2018-09-19T10:22:48.313Z,2.80
2018-09-19T10:23:49.140Z,2.80
2018-09-19T10:24:50.007Z,2.70
2018-09-19T10:26:19.666Z,2.70
2018-09-19T10:27:23.331Z,2.70
2018-09-19T10:28:24.362Z,2.80
2018-09-19T10:29:26.655Z,2.80
2018-09-19T10:30:29.780Z,2.80
2018-09-19T10:32:07.307Z,2.60
2018-09-19T10:33:07.970Z,2.80
2018-09-19T10:34:08.688Z,2.60
2018-09-19T10:35:09.375Z,2.90
2018-09-19T10:36:10.107Z,2.60
2018-09-19T10:37:10.833Z,2.90
2018-09-19T10:38:11.545Z,2.90
2018-09-19T10:39:14.095Z,2.80
2018-09-19T10:40:14.799Z,2.80
2018-09-19T10:41:16.651Z,2.70
2018-09-19T10:42:54.168Z,2.50
2018-09-19T10:44:06.001Z,2.80
2018-09-19T10:45:15.635Z,2.80
2018-09-19T10:48:06.398Z,2.80
2018-09-19T10:49:07.141Z,2.60
2018-09-19T10:50:17.840Z,2.90
2018-09-19T10:51:18.546Z,2.90
2018-09-19T10:52:19.261Z,2.50
2018-09-19T10:53:19.969Z,2.50
2018-09-19T10:54:20.659Z,2.90
2018-09-19T10:55:26.526Z,2.60
2018-09-19T10:56:27.869Z,2.60
2018-09-19T10:57:28.528Z,2.80
2018-09-19T10:58:32.168Z,2.90
2018-09-19T11:01:21.741Z,2.80
2018-09-19T11:02:24.229Z,2.70
2018-09-19T11:03:24.997Z,3.00
2018-09-19T11:04:25.684Z,2.80
2018-09-19T11:05:26.422Z,2.80
2018-09-19T11:07:02.255Z,2.70
2018-09-19T11:08:02.992Z,2.70
2018-09-19T11:09:03.661Z,2.90
2018-09-19T11:10:04.355Z,2.90
2018-09-19T11:11:05.153Z,2.60
2018-09-19T11:12:17.297Z,2.70
2018-09-19T11:15:07.816Z,3.10
2018-09-19T11:16:08.479Z,2.70
2018-09-19T11:17:09.199Z,2.80
2018-09-19T11:18:17.686Z,2.70
2018-09-19T11:19:18.481Z,2.80
2018-09-19T11:20:19.173Z,3.10
2018-09-19T11:21:19.852Z,2.90
2018-09-19T11:22:20.546Z,2.90
2018-09-19T11:23:21.236Z,2.80
2018-09-19T11:26:16.004Z,3.00
2018-09-19T11:27:17.466Z,2.90
2018-09-19T11:28:18.573Z,2.70
2018-09-19T11:29:19.544Z,2.90
2018-09-19T11:30:20.294Z,2.90
2018-09-19T11:31:48.725Z,2.90
2018-09-19T11:32:49.731Z,3.00
2018-09-19T11:34:18.443Z,2.80
2018-09-19T11:35:19.368Z,2.80
2018-09-19T11:36:20.388Z,2.90
2018-09-19T11:37:21.299Z,2.90
2018-09-19T11:38:22.415Z,2.80
2018-09-19T11:40:24.498Z,2.90
2018-09-19T11:41:25.706Z,2.80
2018-09-19T11:45:14.368Z,2.70
2018-09-19T11:46:15.337Z,2.70
2018-09-19T11:49:04.309Z,3.00
2018-09-19T11:50:05.511Z,2.80
2018-09-19T11:51:06.469Z,2.70
2018-09-19T11:52:07.901Z,2.80
2018-09-19T11:53:17.392Z,2.80
2018-09-19T11:54:18.227Z,3.00
2018-09-19T11:55:47.655Z,2.90
2018-09-19T11:56:48.505Z,2.60
2018-09-19T11:57:49.289Z,3.00
2018-09-19T11:58:50.157Z,2.90
2018-09-19T11:59:51.970Z,2.80
2018-09-19T12:04:24.651Z,3.00
2018-09-19T12:07:12.684Z,3.00
2018-09-19T12:08:19.929Z,3.10
2018-09-19T12:09:20.664Z,2.90
2018-09-19T12:10:21.331Z,2.90
2018-09-19T12:11:22.051Z,3.10
2018-09-19T12:13:22.979Z,3.30
2018-09-19T12:14:23.685Z,2.90
2018-09-19T12:15:24.438Z,3.20
2018-09-19T12:17:25.405Z,2.90
2018-09-19T12:18:26.064Z,3.40
2018-09-19T12:19:56.356Z,2.90
2018-09-19T12:20:56.996Z,2.90
2018-09-19T12:21:57.743Z,3.00
2018-09-19T12:24:46.211Z,2.80
2018-09-19T12:26:17.431Z,3.10
2018-09-19T12:27:18.161Z,3.10
2018-09-19T12:28:18.894Z,3.50
2018-09-19T12:29:47.321Z,3.30
2018-09-19T12:30:48.001Z,3.30
2018-09-19T12:32:17.320Z,2.90
2018-09-19T12:33:53.582Z,3.10
2018-09-19T12:35:19.622Z,3.10
2018-09-19T12:36:20.384Z,3.50
2018-09-19T12:37:21.164Z,3.20
2018-09-19T12:39:47.629Z,3.10
2018-09-19T12:40:48.498Z,3.10
2018-09-19T12:41:49.506Z,3.40
2018-09-19T12:44:37.134Z,3.00
2018-09-19T12:45:47.709Z,3.20
2018-09-19T12:46:48.674Z,3.20
2018-09-19T12:49:36.616Z,3.50
2018-09-19T12:50:38.203Z,3.40
2018-09-19T12:51:39.468Z,3.50
2018-09-19T12:52:41.297Z,3.30
2018-09-19T12:53:48.488Z,3.60
2018-09-19T12:56:36.621Z,3.30
2018-09-19T12:57:38.691Z,3.40
2018-09-19T12:58:39.635Z,3.40
2018-09-19T12:59:44.781Z,3.30
2018-09-19T13:00:46.464Z,3.30
2018-09-19T13:01:47.860Z,3.40
2018-09-19T13:02:48.720Z,3.50
2018-09-19T13:03:49.651Z,3.40
2018-09-19T13:04:50.788Z,3.30
2018-09-19T13:05:51.838Z,3.50
2018-09-19T13:06:52.848Z,3.50
2018-09-19T13:07:54.635Z,3.30
2018-09-19T13:09:18.063Z,3.30
2018-09-19T13:10:19.124Z,3.20
2018-09-19T13:11:20.383Z,3.40
2018-09-19T13:12:21.368Z,3.60
2018-09-19T13:13:22.211Z,3.50
2018-09-19T13:14:23.164Z,3.40
2018-09-19T13:15:48.823Z,3.60
2018-09-19T13:16:50.835Z,3.40
2018-09-19T13:17:51.633Z,3.40
2018-09-19T13:18:52.696Z,3.40
2018-09-19T13:19:53.784Z,3.40
2018-09-19T13:21:20.580Z,3.50
2018-09-19T13:22:36.483Z,3.50
2018-09-19T13:23:49.343Z,3.70
2018-09-19T13:24:50.450Z,3.60
2018-09-19T13:25:51.693Z,3.60
2018-09-19T13:26:52.597Z,3.50
2018-09-19T13:27:53.491Z,3.30
2018-09-19T13:28:55.444Z,3.30
2018-09-19T13:31:45.556Z,3.20
2018-09-19T13:32:46.263Z,3.30
2018-09-19T13:35:33.720Z,3.30
2018-09-19T13:38:39.048Z,3.40
2018-09-19T13:39:41.930Z,3.40
2018-09-19T13:40:44.488Z,3.30
2018-09-19T13:41:46.584Z,3.30
2018-09-19T13:42:53.691Z,3.40
2018-09-19T13:43:55.755Z,3.50
2018-09-19T13:44:57.172Z,3.50
2018-09-19T13:47:47.454Z,3.70
2018-09-19T13:48:48.163Z,3.50
2018-09-19T13:49:48.842Z,3.50
2018-09-19T13:50:49.488Z,3.40
2018-09-19T13:51:50.181Z,3.50
2018-09-19T13:53:17.293Z,3.40
2018-09-19T13:54:17.956Z,3.40
2018-09-19T13:55:48.069Z,3.40
2018-09-19T13:57:17.916Z,3.60
2018-09-19T13:59:18.877Z,3.40
2018-09-19T14:00:19.531Z,3.60
2018-09-19T14:01:20.266Z,3.50
2018-09-19T14:02:48.524Z,3.70
2018-09-19T14:03:49.211Z,3.70
2018-09-19T14:04:50.017Z,3.50
2018-09-19T14:05:50.839Z,3.40
2018-09-19T14:07:17.880Z,3.30
2018-09-19T14:08:28.687Z,3.50
2018-09-19T14:09:47.662Z,3.50
2018-09-19T14:12:49.353Z,3.60
2018-09-19T14:13:50.081Z,3.20
2018-09-19T14:15:51.051Z,3.50
2018-09-19T14:16:51.863Z,3.80
2018-09-19T14:17:52.658Z,3.30
2018-09-19T14:18:53.360Z,3.30
2018-09-19T14:20:18.608Z,3.60
2018-09-19T14:21:19.328Z,3.40
2018-09-19T14:22:48.193Z,3.50
2018-09-19T14:24:56.019Z,3.30
2018-09-19T14:25:57.448Z,3.30
2018-09-19T14:26:58.111Z,3.50
2018-09-19T14:27:58.839Z,3.50
2018-09-19T14:28:59.840Z,3.30
2018-09-19T14:32:18.118Z,3.60
2018-09-19T14:33:18.827Z,3.60
2018-09-19T14:34:19.587Z,3.60
2018-09-19T14:35:48.385Z,3.70
2018-09-19T14:36:49.085Z,3.70
2018-09-19T14:37:49.813Z,3.20
2018-09-19T14:38:50.628Z,3.60
2018-09-19T14:40:17.680Z,3.40
2018-09-19T14:41:18.481Z,3.60
2018-09-19T14:42:19.303Z,3.50
2018-09-19T14:44:47.247Z,3.30
2018-09-19T14:46:17.578Z,3.50
2018-09-19T14:47:18.313Z,3.50
2018-09-19T14:48:19.058Z,3.50
2018-09-19T14:49:19.753Z,3.50
2018-09-19T14:50:20.447Z,3.60
2018-09-19T14:51:21.225Z,3.60
2018-09-19T14:52:21.960Z,3.50
2018-09-19T14:53:47.517Z,3.40
2018-09-19T14:54:48.280Z,3.40
2018-09-19T14:55:49.018Z,3.20
2018-09-19T14:56:49.745Z,3.50
2018-09-19T14:57:50.405Z,3.50
2018-09-19T14:58:51.108Z,3.20
2018-09-19T14:59:51.795Z,3.40
2018-09-19T15:00:53.717Z,3.40
2018-09-19T15:01:54.510Z,3.40
2018-09-19T15:02:56.776Z,3.20
2018-09-19T15:03:57.521Z,3.30
2018-09-19T15:05:17.589Z,3.30
2018-09-19T15:06:18.301Z,3.20
2018-09-19T15:07:19.050Z,3.40
2018-09-19T15:08:19.760Z,3.30
2018-09-19T15:09:48.090Z,3.50
2018-09-19T15:11:18.618Z,3.50
2018-09-19T15:12:19.348Z,3.50
2018-09-19T15:13:20.034Z,3.20
2018-09-19T15:14:20.761Z,3.70
2018-09-19T15:15:21.453Z,3.70
2018-09-19T15:16:22.281Z,3.50
2018-09-19T15:17:23.036Z,3.20
2018-09-19T15:18:23.969Z,3.20
2018-09-19T15:19:25.773Z,3.50
2018-09-19T15:20:47.591Z,3.50
2018-09-19T15:21:48.369Z,3.40
2018-09-19T15:22:49.194Z,3.10
2018-09-19T15:23:49.899Z,3.10
2018-09-19T15:24:50.590Z,3.30
2018-09-19T15:26:17.762Z,3.10
2018-09-19T15:27:48.186Z,3.30
2018-09-19T15:28:59.984Z,3.30
2018-09-19T15:31:02.077Z,3.60
2018-09-19T15:32:03.000Z,3.70
2018-09-19T15:33:03.813Z,3.50
2018-09-19T15:34:04.538Z,3.50
2018-09-19T15:35:05.315Z,3.30
2018-09-19T15:36:06.152Z,3.50
2018-09-19T15:37:06.960Z,3.50
2018-09-19T15:38:07.631Z,3.40
2018-09-19T15:39:08.421Z,3.50
2018-09-19T15:41:09.395Z,3.40
2018-09-19T15:42:10.430Z,3.60
2018-09-19T15:43:17.700Z,3.40
2018-09-19T15:44:18.507Z,3.50
2018-09-19T15:45:47.576Z,3.50
2018-09-19T15:46:48.260Z,3.50
2018-09-19T15:48:17.401Z,3.40
2018-09-19T15:49:47.652Z,3.70
2018-09-19T15:50:48.516Z,3.70
2018-09-19T15:51:49.303Z,3.50
2018-09-19T15:52:50.055Z,3.30
2018-09-19T15:53:50.755Z,3.50
2018-09-19T15:54:51.567Z,3.40
2018-09-19T15:55:53.065Z,3.40
2018-09-19T15:56:53.974Z,3.40
2018-09-19T15:57:54.876Z,3.40
2018-09-19T15:58:55.569Z,3.30
2018-09-19T15:59:56.483Z,3.40
2018-09-19T16:00:57.336Z,3.60
2018-09-19T16:01:58.876Z,3.40
2018-09-19T16:02:59.689Z,3.40
2018-09-19T16:05:00.733Z,3.50
2018-09-19T16:06:01.484Z,3.50
2018-09-19T16:07:02.382Z,3.60
2018-09-19T16:08:03.218Z,3.40
2018-09-19T16:09:05.007Z,3.50
2018-09-19T16:10:19.255Z,3.40
2018-09-19T16:11:19.970Z,3.30
2018-09-19T16:12:20.880Z,3.70
2018-09-19T16:13:21.631Z,3.30
2018-09-19T16:14:47.459Z,3.50
2018-09-19T16:15:48.210Z,3.30
2018-09-19T16:16:48.956Z,3.50
2018-09-19T16:18:47.409Z,3.50
2018-09-19T16:19:48.097Z,3.40
2018-09-19T16:20:48.850Z,3.60
2018-09-19T16:22:22.359Z,3.60
2018-09-19T16:23:23.091Z,3.60
2018-09-19T16:24:23.758Z,3.50
2018-09-19T16:25:24.431Z,3.60
2018-09-19T16:26:25.145Z,3.90
2018-09-19T16:27:27.003Z,3.80
2018-09-19T16:28:29.009Z,3.40
2018-09-19T16:29:29.932Z,3.60
2018-09-19T16:30:39.504Z,3.50
2018-09-19T16:31:40.566Z,3.40
2018-09-19T16:32:42.038Z,3.60
2018-09-19T16:33:43.851Z,3.70
2018-09-19T16:34:45.140Z,3.70
2018-09-19T16:35:46.043Z,3.30
2018-09-19T16:36:46.827Z,3.90
2018-09-19T16:37:49.774Z,3.40
2018-09-19T16:38:50.628Z,3.60
2018-09-19T16:39:51.323Z,3.50
2018-09-19T16:42:00.116Z,3.80
2018-09-19T16:43:01.138Z,3.70
2018-09-19T16:44:06.453Z,3.50
2018-09-19T16:45:08.506Z,3.70
2018-09-19T16:46:17.871Z,3.50
2018-09-19T16:47:18.693Z,3.80
2018-09-19T16:48:19.495Z,3.70
2018-09-19T16:49:20.275Z,3.80
2018-09-19T16:50:20.981Z,3.80
2018-09-19T16:51:21.707Z,3.60
2018-09-19T16:52:22.426Z,3.70
2018-09-19T16:53:47.860Z,3.30
2018-09-19T16:54:48.578Z,3.30
2018-09-19T16:56:17.442Z,3.50
2018-09-19T16:57:18.220Z,3.60
2018-09-19T16:58:19.008Z,3.40
2018-09-19T16:59:19.724Z,3.90
2018-09-19T17:00:20.413Z,3.70
2018-09-19T17:01:48.826Z,3.80
2018-09-19T17:02:49.533Z,3.50
2018-09-19T17:07:24.971Z,3.70
2018-09-19T17:08:26.535Z,3.60
2018-09-19T17:11:14.218Z,3.80
2018-09-19T17:13:15.339Z,3.70
2018-09-19T17:14:16.367Z,3.70
2018-09-19T17:15:17.720Z,3.70
2018-09-19T17:18:07.034Z,3.90
2018-09-19T17:19:08.551Z,4.00
2018-09-19T17:21:09.835Z,4.00
2018-09-19T17:22:10.734Z,3.80
2018-09-19T17:23:13.929Z,3.90
2018-09-19T17:24:14.748Z,4.00
2018-09-19T17:25:16.743Z,4.30
2018-09-19T17:26:47.661Z,4.30
2018-09-19T17:27:48.397Z,4.50
2018-09-19T17:28:49.131Z,4.20
2018-09-19T17:29:49.783Z,4.20
2018-09-19T17:30:50.486Z,4.30
2018-09-19T17:32:17.419Z,4.40
2018-09-19T17:33:18.214Z,4.50
2018-09-19T17:34:19.013Z,4.40
2018-09-19T17:35:19.745Z,4.60
2018-09-19T17:36:20.426Z,4.20
2018-09-19T17:37:21.197Z,4.70
2018-09-19T17:38:21.929Z,4.30
2018-09-19T17:39:22.622Z,4.60
2018-09-19T17:40:23.353Z,4.40
2018-09-19T17:41:24.310Z,4.20
2018-09-19T17:42:25.318Z,4.40
2018-09-19T17:43:48.870Z,4.70
2018-09-19T17:44:49.677Z,4.50
2018-09-19T17:45:50.435Z,4.80
2018-09-19T17:46:51.252Z,4.60
2018-09-19T17:47:52.025Z,4.50
2018-09-19T17:48:52.824Z,4.80
2018-09-19T17:51:40.681Z,4.80
2018-09-19T17:52:41.735Z,4.90
2018-09-19T17:53:42.719Z,5.50
2018-09-19T17:54:43.509Z,4.80
2018-09-19T17:55:44.608Z,5.10
2018-09-19T17:56:45.361Z,4.60
2018-09-19T17:57:46.851Z,5.00
2018-09-19T17:58:47.618Z,5.00
2018-09-19T17:59:48.324Z,4.80
2018-09-19T18:01:49.551Z,4.70
2018-09-19T18:03:17.956Z,4.90
2018-09-19T18:04:18.708Z,4.30
2018-09-19T18:05:19.537Z,4.90
2018-09-19T18:06:20.238Z,5.10
2018-09-19T18:07:47.383Z,5.10
2018-09-19T18:09:17.792Z,5.60
2018-09-19T18:10:18.541Z,5.60
2018-09-19T18:14:19.491Z,5.30
2018-09-19T18:15:20.273Z,5.40
2018-09-19T18:16:48.224Z,5.90
2018-09-19T18:17:49.013Z,6.10
2018-09-19T18:18:49.743Z,6.00
2018-09-19T18:19:50.434Z,5.70
2018-09-19T18:21:21.395Z,5.90
2018-09-19T18:22:23.393Z,5.60
2018-09-19T18:23:24.059Z,6.20
2018-09-19T18:24:47.384Z,5.90
2018-09-19T18:25:48.138Z,5.80
2018-09-19T18:26:49.403Z,5.30
2018-09-19T18:27:50.201Z,5.40
2018-09-19T18:28:52.816Z,5.30
2018-09-19T18:33:23.149Z,5.60
2018-09-19T18:33:53.283Z,5.40
2018-09-19T18:35:04.761Z,5.70
2018-09-19T18:36:40.190Z,5.40
2018-09-19T18:37:41.117Z,5.40
2018-09-19T18:38:53.956Z,5.20
2018-09-19T18:40:17.997Z,5.50
